createdAt,value
2023-04-15T00:00:57.549Z,4.07
2023-04-15T00:03:29.012Z,10.32
2023-04-15T00:05:56.348Z,3.00
2023-04-15T00:08:23.225Z,3.47
2023-04-15T00:10:51.011Z,3.20
2023-04-15T00:13:17.602Z,4.07
2023-04-15T00:15:47.402Z,5.35
2023-04-15T00:18:16.937Z,3.10
2023-04-15T00:20:43.893Z,3.00
2023-04-15T00:23:10.422Z,3.67
2023-04-15T00:25:37.017Z,4.80
2023-04-15T00:28:04.185Z,3.28
2023-04-15T00:30:31.685Z,3.05
2023-04-15T00:32:58.304Z,4.82
2023-04-15T00:35:25.551Z,3.22
2023-04-15T00:37:52.165Z,3.40
2023-04-15T00:40:22.276Z,4.85
2023-04-15T00:42:48.832Z,3.55
2023-04-15T00:45:15.857Z,3.38
2023-04-15T00:47:44.209Z,3.47
2023-04-15T00:50:15.160Z,3.25
2023-04-15T00:52:41.910Z,5.78
2023-04-15T00:55:09.492Z,4.53
2023-04-15T00:57:36.490Z,2.88
2023-04-15T01:00:08.021Z,3.88
2023-04-15T01:02:36.561Z,2.67
2023-04-15T01:05:04.542Z,3.17
2023-04-15T01:07:31.952Z,3.78
2023-04-15T01:09:59.540Z,4.28
2023-04-15T01:12:29.671Z,4.93
2023-04-15T01:14:57.334Z,3.63
2023-04-15T01:17:25.628Z,3.00
2023-04-15T01:19:52.896Z,2.90
2023-04-15T01:22:21.856Z,3.08
2023-04-15T01:25:02.096Z,3.58
2023-04-15T01:27:28.774Z,5.68
2023-04-15T01:29:55.346Z,4.00
2023-04-15T01:32:21.924Z,3.83
2023-04-15T01:34:49.422Z,3.00
2023-04-15T01:37:16.338Z,3.78
2023-04-15T01:39:43.388Z,4.15
2023-04-15T01:42:09.992Z,4.32
2023-04-15T01:44:38.802Z,2.78
2023-04-15T01:47:05.694Z,3.38
2023-04-15T01:49:34.871Z,5.35
2023-04-15T01:52:01.529Z,3.40
2023-04-15T01:54:46.711Z,7.95
2023-04-15T01:57:13.387Z,4.03
2023-04-15T01:59:41.163Z,5.15
2023-04-15T02:02:07.930Z,3.70
2023-04-15T02:04:53.708Z,3.83
2023-04-15T02:07:20.284Z,2.53
2023-04-15T02:09:46.807Z,3.50
2023-04-15T02:12:13.712Z,3.35
2023-04-15T02:14:43.054Z,3.15
2023-04-15T02:17:09.569Z,3.70
2023-04-15T02:19:37.707Z,3.83
2023-04-15T02:22:04.262Z,3.10
2023-04-15T02:24:31.241Z,4.95
2023-04-15T02:26:58.926Z,3.40
2023-04-15T02:29:32.819Z,5.57
2023-04-15T02:31:59.419Z,4.32
2023-04-15T02:34:27.724Z,4.05
2023-04-15T02:36:57.281Z,3.63
2023-04-15T02:39:25.645Z,3.42
2023-04-15T02:41:56.229Z,3.13
2023-04-15T02:44:41.639Z,4.63
2023-04-15T02:47:08.463Z,2.97
2023-04-15T02:49:35.920Z,3.15
2023-04-15T02:52:02.480Z,3.58
2023-04-15T02:54:31.044Z,3.25
2023-04-15T02:56:57.555Z,3.38
2023-04-15T02:59:26.013Z,2.72
2023-04-15T03:01:52.779Z,2.83
2023-04-15T03:04:23.008Z,3.33
2023-04-15T03:06:49.556Z,3.25
2023-04-15T03:09:16.528Z,3.30
2023-04-15T03:11:43.068Z,5.32
2023-04-15T03:14:09.640Z,3.63
2023-04-15T03:16:37.337Z,5.22
2023-04-15T03:19:04.277Z,3.53
2023-04-15T03:21:30.940Z,4.20
2023-04-15T03:23:57.698Z,4.00
2023-04-15T03:26:31.811Z,5.28
2023-04-15T03:28:58.777Z,4.03
2023-04-15T03:31:44.488Z,4.13
2023-04-15T03:34:11.105Z,4.28
2023-04-15T03:36:38.739Z,4.55
2023-04-15T03:39:05.601Z,4.07
2023-04-15T03:41:33.037Z,3.97
2023-04-15T03:43:59.825Z,4.68
2023-04-15T03:46:28.720Z,4.82
2023-04-15T03:48:55.426Z,4.55
2023-04-15T03:51:24.008Z,3.97
2023-04-15T03:53:50.598Z,4.07
2023-04-15T03:56:17.292Z,6.07
2023-04-15T03:58:43.896Z,4.63
2023-04-15T04:01:13.633Z,6.80
2023-04-15T04:03:40.287Z,4.75
2023-04-15T04:06:09.196Z,4.40
2023-04-15T04:08:35.776Z,5.55
2023-04-15T04:11:05.422Z,8.70
2023-04-15T04:13:32.066Z,7.45
2023-04-15T04:15:59.341Z,4.78
2023-04-15T04:18:25.978Z,4.53
2023-04-15T04:20:53.455Z,4.15
2023-04-15T04:23:20.273Z,5.57
2023-04-15T04:25:49.590Z,6.22
2023-04-15T04:28:16.085Z,4.45
2023-04-15T04:30:42.803Z,3.70
2023-04-15T04:33:09.525Z,4.60
2023-04-15T04:35:37.680Z,6.53
2023-04-15T04:38:04.699Z,6.32
2023-04-15T04:40:31.354Z,4.75
2023-04-15T04:42:57.942Z,4.40
2023-04-15T04:45:43.273Z,4.60
2023-04-15T04:48:10.625Z,5.82
2023-04-15T04:50:56.024Z,5.32
2023-04-15T04:53:22.788Z,6.95
2023-04-15T04:55:49.360Z,4.72
2023-04-15T04:58:15.899Z,6.15
2023-04-15T05:00:42.849Z,5.32
2023-04-15T05:03:09.776Z,5.03
2023-04-15T05:05:39.409Z,5.22
2023-04-15T05:08:07.374Z,5.72
2023-04-15T05:10:34.050Z,5.80
2023-04-15T05:13:00.649Z,5.60
2023-04-15T05:15:27.152Z,4.75
2023-04-15T05:17:55.592Z,4.60
2023-04-15T05:20:22.366Z,5.55
2023-04-15T05:22:49.650Z,5.03
2023-04-15T05:25:17.267Z,5.80
2023-04-15T05:27:44.039Z,5.07
2023-04-15T05:30:12.742Z,6.25
2023-04-15T05:32:40.990Z,6.43
2023-04-15T05:35:08.578Z,5.75
2023-04-15T05:37:35.834Z,5.75
2023-04-15T05:40:02.351Z,6.93
2023-04-15T05:42:34.976Z,5.50
2023-04-15T05:45:01.623Z,6.32
2023-04-15T05:47:31.716Z,5.47
2023-04-15T05:50:00.617Z,5.93
2023-04-15T05:52:27.890Z,6.20
2023-04-15T05:54:54.455Z,6.25
2023-04-15T05:57:21.962Z,8.18
2023-04-15T05:59:49.125Z,6.43
2023-04-15T06:02:16.508Z,7.38
2023-04-15T06:04:43.829Z,7.00
2023-04-15T06:07:10.705Z,7.22
2023-04-15T06:09:37.292Z,6.50
2023-04-15T06:12:22.504Z,10.35
2023-04-15T06:14:51.178Z,7.25
2023-04-15T06:17:19.524Z,7.18
2023-04-15T06:19:46.103Z,8.80
2023-04-15T06:22:13.474Z,7.70
2023-04-15T06:24:40.252Z,7.45
2023-04-15T06:27:07.612Z,7.90
2023-04-15T06:29:34.413Z,7.57
2023-04-15T06:32:01.008Z,8.05
2023-04-15T06:34:30.387Z,7.80
2023-04-15T06:36:57.676Z,7.22
2023-04-15T06:39:24.313Z,7.85
2023-04-15T06:41:52.396Z,7.80
2023-04-15T06:44:19.156Z,6.97
2023-04-15T06:46:45.744Z,8.48
2023-04-15T06:49:12.347Z,7.45
2023-04-15T06:51:38.932Z,8.30
2023-04-15T06:54:06.345Z,6.57
2023-04-15T06:56:54.791Z,7.82
2023-04-15T06:59:21.336Z,7.22
2023-04-15T07:01:53.695Z,8.55
2023-04-15T07:04:20.854Z,8.02
2023-04-15T07:06:47.479Z,6.90
2023-04-15T07:09:16.352Z,6.97
2023-04-15T07:11:42.898Z,8.13
2023-04-15T07:14:09.468Z,7.72
2023-04-15T07:16:36.185Z,6.80
2023-04-15T07:19:04.416Z,6.28
2023-04-15T07:21:31.296Z,9.98
2023-04-15T07:23:58.792Z,8.52
2023-04-15T07:26:25.551Z,7.88
2023-04-15T07:28:52.828Z,9.00
2023-04-15T07:31:22.370Z,7.70
2023-04-15T07:33:49.710Z,7.97
2023-04-15T07:36:16.306Z,8.00
2023-04-15T07:38:47.552Z,8.40
2023-04-15T07:41:14.283Z,7.80
2023-04-15T07:43:41.250Z,8.93
2023-04-15T07:46:07.854Z,8.55
2023-04-15T07:48:35.555Z,8.35
2023-04-15T07:51:03.639Z,6.78
2023-04-15T07:53:33.177Z,7.03
2023-04-15T07:55:59.790Z,10.48
2023-04-15T07:58:26.422Z,6.85
2023-04-15T08:01:11.856Z,8.45
2023-04-15T08:03:40.117Z,7.78
2023-04-15T08:06:08.588Z,5.78
2023-04-15T08:08:35.181Z,8.57
2023-04-15T08:11:02.445Z,7.07
2023-04-15T08:13:29.089Z,6.70
2023-04-15T08:16:15.318Z,7.40
2023-04-15T08:18:43.318Z,7.35
2023-04-15T08:21:12.047Z,7.95
2023-04-15T08:23:39.388Z,6.45
2023-04-15T08:26:08.420Z,6.53
2023-04-15T08:28:35.147Z,5.32
2023-04-15T08:31:04.014Z,8.50
2023-04-15T08:33:30.793Z,5.07
2023-04-15T08:35:59.964Z,5.70
2023-04-15T08:38:26.650Z,5.53
2023-04-15T08:40:53.260Z,5.80
2023-04-15T08:43:28.502Z,5.07
2023-04-15T08:45:55.897Z,6.57
2023-04-15T08:48:24.592Z,5.32
2023-04-15T08:51:10.973Z,5.45
2023-04-15T08:53:37.749Z,5.13
2023-04-15T08:56:12.559Z,5.07
2023-04-15T08:58:39.179Z,4.88
2023-04-15T09:01:08.977Z,5.05
2023-04-15T09:03:39.125Z,4.82
2023-04-15T09:06:06.984Z,4.55
2023-04-15T09:08:35.869Z,4.35
2023-04-15T09:11:04.235Z,4.30
2023-04-15T09:13:34.864Z,4.05
2023-04-15T09:16:06.289Z,4.90
2023-04-15T09:18:36.929Z,3.88
2023-04-15T09:21:13.430Z,4.53
2023-04-15T09:26:31.110Z,3.47
2023-04-15T09:29:07.501Z,3.83
2023-04-15T09:31:34.405Z,3.13
2023-04-15T09:34:01.270Z,3.40
2023-04-15T09:36:31.663Z,2.92
2023-04-15T09:39:02.752Z,4.65
2023-04-15T09:41:29.323Z,2.63
2023-04-15T09:43:57.206Z,3.50
2023-04-15T09:46:45.543Z,3.33
2023-04-15T09:49:13.489Z,3.83
2023-04-15T09:51:40.201Z,4.40
2023-04-15T09:54:07.454Z,3.50
2023-04-15T09:56:52.934Z,3.38
2023-04-15T09:59:20.213Z,3.97
2023-04-15T10:01:48.090Z,4.60
2023-04-15T10:04:16.976Z,3.40
2023-04-15T10:06:44.005Z,3.70
2023-04-15T10:09:10.771Z,3.00
2023-04-15T10:11:37.746Z,3.88
2023-04-15T10:14:05.115Z,4.50
2023-04-15T10:16:32.921Z,2.55
2023-04-15T10:19:02.242Z,3.50
2023-04-15T10:21:30.834Z,2.80
2023-04-15T10:23:58.607Z,2.95
2023-04-15T10:26:25.324Z,6.10
2023-04-15T10:28:56.027Z,4.75
2023-04-15T10:31:25.786Z,3.58
2023-04-15T10:33:53.514Z,2.47
2023-04-15T10:36:20.980Z,2.63
2023-04-15T10:38:47.704Z,2.97
2023-04-15T10:41:16.631Z,4.30
2023-04-15T10:43:53.714Z,1.90
2023-04-15T10:46:23.992Z,2.53
2023-04-15T10:48:53.264Z,2.60
2023-04-15T10:51:28.969Z,2.33
2023-04-15T10:54:00.021Z,2.10
2023-04-15T10:56:28.836Z,2.70
2023-04-15T10:59:16.327Z,1.90
2023-04-15T11:02:01.522Z,5.13
2023-04-15T11:04:59.996Z,2.28
2023-04-15T11:07:44.695Z,2.92
2023-04-15T11:10:14.094Z,2.20
2023-04-15T11:12:45.435Z,2.33
2023-04-15T11:18:30.754Z,2.33
2023-04-15T11:21:00.411Z,2.55
2023-04-15T11:23:41.279Z,2.88
2023-04-15T11:26:11.979Z,3.08
2023-04-15T11:28:43.348Z,2.25
2023-04-15T11:31:15.536Z,4.05
2023-04-15T11:34:02.350Z,3.60
2023-04-15T11:36:31.875Z,4.32
2023-04-15T11:39:00.540Z,3.47
2023-04-15T11:41:27.336Z,2.40
2023-04-15T11:43:54.309Z,2.28
2023-04-15T11:46:22.044Z,2.78
2023-04-15T11:48:48.754Z,4.20
2023-04-15T11:51:15.612Z,2.53
2023-04-15T11:53:47.578Z,3.42
2023-04-15T11:56:20.293Z,3.55
2023-04-15T11:58:48.274Z,2.33
2023-04-15T12:01:14.807Z,3.38
2023-04-15T12:03:44.096Z,2.25
2023-04-15T12:06:17.095Z,1.73
2023-04-15T12:08:55.427Z,1.77
2023-04-15T12:11:47.671Z,3.40
2023-04-15T12:14:31.582Z,2.03
2023-04-15T12:17:02.423Z,1.90
2023-04-15T12:23:10.587Z,2.15
2023-04-15T12:26:33.380Z,3.70
2023-04-15T12:33:22.606Z,2.20
2023-04-15T12:39:35.581Z,2.60
2023-04-15T12:45:11.493Z,3.50
2023-04-15T12:47:38.174Z,3.80
2023-04-15T12:53:45.249Z,2.38
2023-04-15T12:56:11.761Z,3.15
2023-04-15T12:59:34.898Z,3.35
2023-04-15T13:06:08.250Z,2.45
2023-04-15T13:08:38.400Z,3.00
2023-04-15T13:12:03.582Z,2.75
2023-04-15T13:14:30.109Z,2.45
2023-04-15T13:17:34.222Z,3.22
2023-04-15T13:23:10.037Z,2.28
2023-04-15T13:28:27.414Z,4.10
2023-04-15T13:30:53.995Z,3.88
2023-04-15T13:33:20.907Z,4.15
2023-04-15T13:35:50.484Z,2.35
2023-04-15T13:38:17.042Z,2.80
2023-04-15T13:40:43.618Z,3.42
2023-04-15T13:43:11.784Z,2.47
2023-04-15T13:48:48.387Z,2.35
2023-04-15T13:51:15.084Z,2.88
2023-04-15T13:57:29.527Z,3.10
2023-04-15T13:59:56.136Z,1.85
2023-04-15T14:06:29.027Z,2.13
2023-04-15T14:08:55.648Z,3.88
2023-04-15T14:11:22.214Z,4.03
2023-04-15T14:14:07.741Z,2.88
2023-04-15T14:16:34.765Z,2.63
2023-04-15T14:19:20.225Z,2.08
2023-04-15T14:21:46.864Z,1.90
2023-04-15T14:24:14.086Z,4.78
2023-04-15T14:26:40.733Z,2.90
2023-04-15T14:29:28.191Z,1.55
2023-04-15T14:32:04.461Z,1.88
2023-04-15T14:34:43.655Z,3.05
2023-04-15T14:40:06.183Z,1.40
2023-04-15T14:42:51.479Z,2.45
2023-04-15T14:45:18.480Z,1.48
2023-04-15T14:47:45.712Z,3.63
2023-04-15T14:50:12.396Z,3.47
2023-04-15T14:59:18.568Z,3.38
2023-04-15T15:01:45.178Z,3.38
2023-04-15T15:11:39.552Z,2.75
2023-04-15T15:15:05.013Z,2.22
2023-04-15T15:17:49.296Z,1.30
2023-04-15T15:20:17.046Z,3.63
2023-04-15T15:22:43.587Z,3.75
2023-04-15T15:25:29.034Z,3.97
2023-04-15T15:27:56.256Z,2.38
2023-04-15T15:30:22.924Z,2.95
2023-04-15T15:32:53.219Z,5.45
2023-04-15T15:35:22.302Z,4.63
2023-04-15T15:37:48.837Z,4.35
2023-04-15T15:40:19.188Z,2.67
2023-04-15T15:42:47.448Z,5.97
2023-04-15T15:45:15.723Z,3.17
2023-04-15T15:47:43.474Z,5.50
2023-04-15T15:50:28.541Z,3.63
2023-04-15T15:52:55.513Z,2.30
2023-04-15T15:55:22.143Z,5.47
2023-04-15T15:57:49.874Z,3.83
2023-04-15T16:00:16.703Z,2.47
2023-04-15T16:05:36.096Z,2.95
2023-04-15T16:08:02.789Z,3.10
2023-04-15T16:10:33.396Z,3.10
2023-04-15T16:13:00.116Z,5.30
2023-04-15T16:15:27.778Z,2.53
2023-04-15T16:17:54.457Z,3.05
2023-04-15T16:20:22.203Z,5.03
2023-04-15T16:22:48.898Z,4.20
2023-04-15T16:25:16.269Z,3.70
2023-04-15T16:27:58.934Z,4.40
2023-04-15T16:30:30.378Z,3.88
2023-04-15T16:33:00.351Z,2.45
2023-04-15T16:35:27.021Z,3.95
2023-04-15T16:37:53.573Z,3.55
2023-04-15T16:40:20.158Z,5.47
2023-04-15T16:42:46.793Z,4.90
2023-04-15T16:45:13.435Z,2.10
2023-04-15T16:47:41.199Z,3.75
2023-04-15T16:50:08.600Z,3.80
2023-04-15T16:52:54.211Z,3.90
2023-04-15T16:55:26.511Z,7.07
2023-04-15T16:58:02.062Z,2.97
2023-04-15T17:00:31.795Z,4.88
2023-04-15T17:03:01.455Z,9.80
2023-04-15T17:05:29.187Z,5.45
2023-04-15T17:07:55.943Z,5.97
2023-04-15T17:10:24.083Z,5.00
2023-04-15T17:12:52.251Z,7.50
2023-04-15T17:15:20.122Z,5.35
2023-04-15T17:17:46.798Z,4.32
2023-04-15T17:20:13.472Z,3.88
2023-04-15T17:22:40.260Z,3.45
2023-04-15T17:25:09.994Z,4.18
2023-04-15T17:27:38.639Z,2.67
2023-04-15T17:30:07.198Z,6.22
2023-04-15T17:32:34.915Z,6.95
2023-04-15T17:35:06.036Z,3.22
2023-04-15T17:37:35.369Z,2.30
2023-04-15T17:40:23.431Z,5.93
2023-04-15T17:42:50.105Z,2.20
2023-04-15T17:45:16.694Z,4.50
2023-04-15T17:47:43.445Z,3.75
2023-04-15T17:50:10.855Z,2.75
2023-04-15T17:52:37.481Z,5.60
2023-04-15T17:55:04.511Z,3.17
2023-04-15T18:00:21.436Z,3.88
2023-04-15T18:02:48.752Z,8.02
2023-04-15T18:05:15.796Z,4.20
2023-04-15T18:07:42.473Z,6.00
2023-04-15T18:10:10.345Z,4.57
2023-04-15T18:12:36.892Z,5.25
2023-04-15T18:15:04.988Z,5.20
2023-04-15T18:17:36.068Z,5.55
2023-04-15T18:20:02.949Z,4.03
2023-04-15T18:22:29.529Z,7.93
2023-04-15T18:25:02.828Z,5.40
2023-04-15T18:27:31.109Z,6.50
2023-04-15T18:30:16.244Z,2.38
2023-04-15T18:32:43.216Z,8.07
2023-04-15T18:35:10.014Z,4.10
2023-04-15T18:37:36.678Z,6.90
2023-04-15T18:40:03.907Z,3.75
2023-04-15T18:42:30.558Z,3.63
2023-04-15T18:45:15.761Z,5.20
2023-04-15T18:47:42.360Z,5.88
2023-04-15T18:50:09.054Z,5.03
2023-04-15T18:52:35.750Z,5.47
2023-04-15T18:55:03.436Z,7.15
2023-04-15T18:57:35.265Z,6.78
2023-04-15T19:00:11.323Z,4.25
2023-04-15T19:02:38.052Z,9.50
2023-04-15T19:05:10.759Z,4.93
2023-04-15T19:07:37.540Z,4.85
2023-04-15T19:10:23.369Z,5.45
2023-04-15T19:12:51.838Z,7.50
2023-04-15T19:15:20.411Z,4.30
2023-04-15T19:17:46.998Z,4.18
2023-04-15T19:20:13.781Z,9.52
2023-04-15T19:22:40.582Z,10.18
2023-04-15T19:25:07.725Z,6.45
2023-04-15T19:27:34.578Z,5.53
2023-04-15T19:30:01.970Z,6.00
2023-04-15T19:32:28.632Z,6.53
2023-04-15T19:37:47.729Z,11.38
2023-04-15T19:40:14.473Z,8.57
2023-04-15T19:42:42.841Z,10.23
2023-04-15T19:45:09.815Z,7.63
2023-04-15T19:47:36.873Z,6.40
2023-04-15T19:50:06.163Z,8.57
2023-04-15T19:52:34.212Z,8.63
2023-04-15T19:55:00.873Z,10.95
2023-04-15T19:57:27.594Z,6.97
2023-04-15T19:59:54.237Z,9.52
2023-04-15T20:02:39.555Z,7.20
2023-04-15T20:05:09.816Z,9.52
2023-04-15T20:07:36.710Z,7.82
2023-04-15T20:10:12.370Z,9.40
2023-04-15T20:12:50.509Z,8.27
2023-04-15T20:15:23.881Z,7.47
2023-04-15T20:17:50.887Z,10.27
2023-04-15T20:20:17.614Z,13.45
2023-04-15T20:22:44.325Z,9.90
2023-04-15T20:25:11.275Z,8.18
2023-04-15T20:28:00.400Z,7.53
2023-04-15T20:30:28.905Z,6.78
2023-04-15T20:32:57.851Z,5.07
2023-04-15T20:35:28.049Z,11.63
2023-04-15T20:37:54.837Z,8.75
2023-04-15T20:40:21.710Z,5.65
2023-04-15T20:42:48.356Z,4.88
2023-04-15T20:45:15.171Z,8.77
2023-04-15T20:47:42.103Z,8.68
2023-04-15T20:50:09.577Z,9.38
2023-04-15T20:52:36.183Z,8.05
2023-04-15T20:55:02.780Z,8.68
2023-04-15T20:57:30.256Z,6.88
2023-04-15T20:59:56.963Z,4.88
2023-04-15T21:02:24.366Z,7.50
2023-04-15T21:04:51.087Z,8.00
2023-04-15T21:07:18.327Z,6.10
2023-04-15T21:09:44.936Z,9.98
2023-04-15T21:12:29.997Z,5.85
2023-04-15T21:14:56.613Z,7.45
2023-04-15T21:17:24.055Z,7.82
2023-04-15T21:19:50.924Z,8.20
2023-04-15T21:22:17.482Z,8.25
2023-04-15T21:24:44.084Z,7.10
2023-04-15T21:27:11.069Z,10.38
2023-04-15T21:29:40.353Z,10.25
2023-04-15T21:32:07.588Z,8.82
2023-04-15T21:34:34.611Z,12.00
2023-04-15T21:37:01.304Z,15.23
2023-04-15T21:39:28.202Z,7.05
2023-04-15T21:41:54.952Z,7.95
2023-04-15T21:44:40.352Z,8.00
2023-04-15T21:47:10.020Z,7.28
2023-04-15T21:49:37.392Z,11.57
2023-04-15T21:52:04.654Z,7.93
2023-04-15T21:54:31.387Z,11.23
2023-04-15T21:56:57.980Z,13.20
2023-04-15T21:59:24.584Z,8.45
2023-04-15T22:01:52.034Z,13.32
2023-04-15T22:04:18.767Z,9.73
2023-04-15T22:06:45.730Z,9.38
2023-04-15T22:09:14.164Z,13.00
2023-04-15T22:11:43.482Z,12.23
2023-04-15T22:14:10.073Z,14.85
2023-04-15T22:16:36.672Z,9.80
2023-04-15T22:19:03.314Z,13.00
2023-04-15T22:21:30.678Z,12.02
2023-04-15T22:24:38.977Z,14.68
2023-04-15T22:26:43.894Z,13.38
2023-04-15T22:29:29.083Z,13.80
2023-04-15T22:31:55.886Z,16.48
2023-04-15T22:34:22.496Z,14.07
2023-04-15T22:36:50.144Z,12.80
2023-04-15T22:39:22.609Z,15.15
2023-04-15T22:41:49.697Z,16.05
2023-04-15T22:44:16.309Z,11.57
2023-04-15T22:46:43.209Z,15.52
2023-04-15T22:49:10.551Z,14.20
2023-04-15T22:51:38.152Z,11.10
2023-04-15T22:54:07.276Z,16.90
2023-04-15T22:56:33.959Z,14.63
2023-04-15T22:59:03.254Z,17.13
2023-04-15T23:01:31.891Z,19.35
2023-04-15T23:04:07.028Z,10.60
2023-04-15T23:06:38.582Z,11.23
2023-04-15T23:09:08.278Z,11.32
2023-04-15T23:11:36.496Z,12.27
2023-04-15T23:14:03.088Z,12.88
2023-04-15T23:16:29.777Z,9.38
2023-04-15T23:18:56.442Z,17.30
2023-04-15T23:21:25.900Z,10.00
2023-04-15T23:23:52.841Z,12.60
2023-04-15T23:26:19.679Z,9.48
2023-04-15T23:28:46.247Z,15.52
2023-04-15T23:31:13.848Z,10.02
2023-04-15T23:33:40.508Z,7.53
2023-04-15T23:36:08.923Z,21.35
2023-04-15T23:38:35.751Z,9.25
2023-04-15T23:41:02.298Z,12.18
2023-04-15T23:43:28.867Z,12.90
2023-04-15T23:45:55.672Z,18.40
2023-04-15T23:48:23.696Z,12.43
2023-04-15T23:51:09.241Z,17.27
2023-04-15T23:53:37.883Z,13.23
2023-04-15T23:56:04.755Z,12.30
2023-04-15T23:58:33.436Z,12.45
